createdAt,value
2019-01-14T00:01:01.429Z,8.60
2019-01-14T00:03:28.297Z,8.57
2019-01-14T00:05:55.012Z,8.54
2019-01-14T00:08:22.012Z,8.46
2019-01-14T00:10:48.757Z,8.46
2019-01-14T00:13:15.620Z,8.46
2019-01-14T00:15:42.363Z,8.46
2019-01-14T00:18:09.211Z,8.46
2019-01-14T00:20:36.051Z,8.41
2019-01-14T00:23:02.914Z,8.34
2019-01-14T00:25:30.779Z,8.27
2019-01-14T00:27:57.589Z,8.16
2019-01-14T00:30:24.374Z,8.16
2019-01-14T00:32:51.589Z,8.16
2019-01-14T00:35:18.359Z,8.09
2019-01-14T00:37:45.130Z,8.05
2019-01-14T00:40:14.075Z,8.09
2019-01-14T00:42:41.456Z,8.13
2019-01-14T00:45:08.423Z,8.09
2019-01-14T00:47:36.819Z,8.04
2019-01-14T00:50:04.134Z,7.99
2019-01-14T00:52:31.357Z,7.93
2019-01-14T00:54:58.100Z,7.91
2019-01-14T00:57:24.872Z,7.95
2019-01-14T00:59:51.638Z,7.98
2019-01-14T01:02:18.430Z,8.05
2019-01-14T01:04:45.285Z,8.08
2019-01-14T01:07:12.192Z,7.96
2019-01-14T01:09:38.960Z,7.96
2019-01-14T01:12:06.248Z,7.94
2019-01-14T01:14:33.532Z,7.95
2019-01-14T01:17:00.511Z,7.90
2019-01-14T01:19:27.291Z,7.93
2019-01-14T01:21:54.162Z,7.87
2019-01-14T01:24:21.723Z,7.85
2019-01-14T01:26:48.479Z,7.88
2019-01-14T01:29:15.627Z,7.93
2019-01-14T01:31:42.396Z,7.91
2019-01-14T01:34:09.137Z,7.96
2019-01-14T01:36:35.862Z,8.01
2019-01-14T01:39:05.785Z,8.03
2019-01-14T01:41:32.582Z,8.03
2019-01-14T01:43:59.360Z,8.06
2019-01-14T01:46:26.190Z,8.06
2019-01-14T01:48:53.464Z,8.08
2019-01-14T01:51:20.237Z,8.04
2019-01-14T01:53:47.486Z,8.09
2019-01-14T01:56:14.223Z,8.10
2019-01-14T01:58:41.335Z,8.12
2019-01-14T02:01:08.059Z,8.14
2019-01-14T02:03:34.899Z,8.21
2019-01-14T02:06:01.944Z,8.27
2019-01-14T02:08:29.066Z,8.28
2019-01-14T02:10:56.368Z,8.27
2019-01-14T02:13:23.642Z,8.29
2019-01-14T02:15:50.857Z,8.24
2019-01-14T02:18:17.985Z,8.26
2019-01-14T02:20:46.270Z,8.22
2019-01-14T02:23:13.039Z,8.18
2019-01-14T02:25:39.889Z,8.13
2019-01-14T02:28:06.597Z,8.11
2019-01-14T02:30:33.431Z,8.06
2019-01-14T02:33:00.140Z,8.03
2019-01-14T02:35:26.889Z,7.99
2019-01-14T02:37:53.816Z,8.01
2019-01-14T02:40:21.234Z,8.02
2019-01-14T02:42:47.957Z,8.02
2019-01-14T02:45:15.650Z,8.06
2019-01-14T02:47:42.510Z,8.04
2019-01-14T02:50:09.835Z,8.05
2019-01-14T02:52:39.800Z,8.13
2019-01-14T02:55:05.596Z,8.02
2019-01-14T02:57:32.360Z,8.02
2019-01-14T02:59:59.410Z,8.06
2019-01-14T03:02:26.147Z,8.02
2019-01-14T03:04:52.962Z,8.04
2019-01-14T03:07:19.752Z,8.06
2019-01-14T03:09:46.504Z,8.05
2019-01-14T03:12:13.607Z,8.01
2019-01-14T03:14:40.636Z,7.92
2019-01-14T03:17:07.377Z,7.98
2019-01-14T03:19:34.257Z,7.96
2019-01-14T03:22:01.145Z,8.01
2019-01-14T03:24:27.894Z,8.05
2019-01-14T03:26:54.676Z,8.10
2019-01-14T03:29:21.592Z,8.05
2019-01-14T03:31:48.781Z,8.05
2019-01-14T03:34:15.614Z,8.07
2019-01-14T03:36:42.507Z,8.06
2019-01-14T03:39:09.227Z,8.04
2019-01-14T03:41:35.947Z,8.02
2019-01-14T03:44:03.255Z,7.95
2019-01-14T03:46:29.979Z,7.91
2019-01-14T03:48:56.688Z,7.86
2019-01-14T03:51:23.504Z,7.77
2019-01-14T03:53:50.396Z,7.85
2019-01-14T03:56:17.555Z,7.71
2019-01-14T03:58:44.292Z,7.77
2019-01-14T04:01:14.773Z,7.79
2019-01-14T04:03:41.509Z,7.79
2019-01-14T04:06:10.695Z,7.72
2019-01-14T04:08:37.541Z,7.68
2019-01-14T04:11:04.392Z,7.63
2019-01-14T04:13:31.429Z,7.60
2019-01-14T04:15:58.185Z,7.57
2019-01-14T04:18:25.075Z,7.61
2019-01-14T04:20:51.867Z,7.55
2019-01-14T04:23:18.658Z,7.45
2019-01-14T04:25:47.130Z,7.35
2019-01-14T04:28:13.879Z,7.45
2019-01-14T04:30:40.636Z,7.51
2019-01-14T04:33:07.507Z,7.53
2019-01-14T04:35:34.398Z,7.70
2019-01-14T04:38:01.424Z,7.70
2019-01-14T04:40:28.213Z,7.74
2019-01-14T04:42:54.907Z,7.75
2019-01-14T04:45:21.651Z,7.80
2019-01-14T04:47:48.407Z,7.71
2019-01-14T04:50:17.150Z,7.68
2019-01-14T04:52:43.880Z,7.57
2019-01-14T04:55:10.656Z,7.45
2019-01-14T04:57:37.361Z,7.47
2019-01-14T05:00:08.155Z,7.56
2019-01-14T05:02:34.890Z,7.47
2019-01-14T05:05:01.725Z,7.46
2019-01-14T05:07:31.410Z,7.50
2019-01-14T05:09:58.194Z,7.50
2019-01-14T05:12:24.951Z,7.49
2019-01-14T05:14:52.193Z,7.43
2019-01-14T05:17:19.034Z,7.39
2019-01-14T05:19:45.785Z,7.40
2019-01-14T05:22:12.570Z,7.43
2019-01-14T05:24:39.470Z,7.43
2019-01-14T05:27:06.250Z,7.52
2019-01-14T05:29:33.033Z,7.48
2019-01-14T05:31:59.975Z,7.51
2019-01-14T05:34:26.711Z,7.43
2019-01-14T05:36:53.486Z,7.45
2019-01-14T05:39:20.226Z,7.53
2019-01-14T05:41:47.199Z,7.55
2019-01-14T05:44:14.124Z,7.57
2019-01-14T05:46:40.888Z,7.56
2019-01-14T05:49:07.700Z,7.56
2019-01-14T05:51:34.634Z,7.57
2019-01-14T05:54:01.739Z,7.59
2019-01-14T05:56:31.710Z,7.45
2019-01-14T05:58:58.516Z,7.45
2019-01-14T06:01:25.465Z,7.50
2019-01-14T06:03:52.583Z,7.55
2019-01-14T06:06:19.458Z,7.59
2019-01-14T06:08:46.307Z,7.55
2019-01-14T06:11:13.333Z,7.47
2019-01-14T06:13:40.071Z,7.47
2019-01-14T06:16:07.180Z,7.50
2019-01-14T06:18:36.795Z,7.50
2019-01-14T06:21:03.560Z,7.41
2019-01-14T06:23:30.640Z,7.50
2019-01-14T06:25:57.423Z,7.47
2019-01-14T06:28:24.268Z,7.40
2019-01-14T06:30:51.514Z,7.40
2019-01-14T06:33:18.365Z,7.33
2019-01-14T06:35:45.374Z,7.26
2019-01-14T06:38:12.812Z,7.22
2019-01-14T06:40:39.744Z,7.15
2019-01-14T06:43:06.493Z,7.12
2019-01-14T06:45:33.282Z,7.16
2019-01-14T06:48:00.313Z,7.24
2019-01-14T06:50:27.068Z,7.33
2019-01-14T06:52:53.882Z,7.33
2019-01-14T06:55:21.439Z,7.33
2019-01-14T06:57:48.473Z,7.36
2019-01-14T07:00:17.966Z,7.26
2019-01-14T07:02:44.932Z,7.36
2019-01-14T07:05:11.863Z,7.36
2019-01-14T07:07:38.657Z,7.36
2019-01-14T07:10:07.409Z,7.30
2019-01-14T07:12:34.558Z,7.33
2019-01-14T07:15:01.329Z,7.35
2019-01-14T07:17:28.330Z,7.35
2019-01-14T07:19:55.078Z,7.32
2019-01-14T07:22:21.815Z,7.25
2019-01-14T07:24:48.517Z,7.34
2019-01-14T07:27:15.755Z,7.35
2019-01-14T07:29:42.998Z,7.42
2019-01-14T07:32:09.860Z,7.42
2019-01-14T07:34:36.844Z,7.48
2019-01-14T07:37:03.816Z,7.48
2019-01-14T07:39:30.575Z,7.49
2019-01-14T07:41:57.444Z,7.53
2019-01-14T07:44:24.651Z,7.32
2019-01-14T07:46:51.560Z,7.36
2019-01-14T07:49:18.300Z,7.34
2019-01-14T07:51:45.044Z,7.40
2019-01-14T07:54:11.767Z,7.35
2019-01-14T07:56:39.051Z,7.35
2019-01-14T07:59:06.201Z,7.26
2019-01-14T08:01:32.929Z,7.31
2019-01-14T08:03:59.665Z,7.36
2019-01-14T08:06:26.452Z,7.36
2019-01-14T08:08:53.386Z,7.35
2019-01-14T08:11:20.350Z,7.34
2019-01-14T08:13:47.127Z,7.14
2019-01-14T08:16:14.027Z,7.37
2019-01-14T08:18:40.946Z,7.27
2019-01-14T08:21:07.736Z,7.23
2019-01-14T08:23:34.656Z,7.27
2019-01-14T08:26:01.426Z,7.30
2019-01-14T08:28:28.284Z,7.35
2019-01-14T08:30:56.408Z,7.35
2019-01-14T08:33:23.564Z,7.29
2019-01-14T08:35:50.455Z,7.29
2019-01-14T08:38:21.138Z,7.27
2019-01-14T08:40:46.170Z,7.29
2019-01-14T08:43:13.114Z,7.29
2019-01-14T08:45:40.461Z,7.36
2019-01-14T08:48:07.251Z,7.41
2019-01-14T08:50:34.221Z,7.56
2019-01-14T08:53:01.505Z,7.51
2019-01-14T08:55:29.756Z,7.58
2019-01-14T08:57:56.885Z,7.58
2019-01-14T09:00:23.735Z,7.67
2019-01-14T09:02:50.870Z,7.68
2019-01-14T09:05:17.749Z,7.68
2019-01-14T09:07:44.924Z,7.67
2019-01-14T09:10:15.917Z,7.62
2019-01-14T09:12:43.659Z,7.62
2019-01-14T09:15:11.503Z,7.61
2019-01-14T09:17:38.566Z,7.61
2019-01-14T09:20:08.721Z,7.67
2019-01-14T09:22:35.647Z,7.73
2019-01-14T09:25:02.890Z,7.84
2019-01-14T09:27:29.747Z,7.88
2019-01-14T09:29:56.698Z,7.84
2019-01-14T09:32:23.446Z,7.86
2019-01-14T09:34:53.362Z,7.85
2019-01-14T09:37:27.323Z,7.82
2019-01-14T09:39:54.075Z,7.81
2019-01-14T09:42:21.308Z,7.75
2019-01-14T09:44:48.298Z,7.73
2019-01-14T09:47:15.053Z,7.71
2019-01-14T09:49:45.622Z,7.75
2019-01-14T09:52:10.740Z,7.72
2019-01-14T09:54:37.490Z,7.78
2019-01-14T09:57:06.306Z,7.78
2019-01-14T09:59:37.850Z,7.79
2019-01-14T10:02:04.700Z,7.85
2019-01-14T10:04:31.441Z,7.81
2019-01-14T10:06:58.313Z,7.81
2019-01-14T10:09:25.215Z,7.79
2019-01-14T10:11:52.065Z,7.89
2019-01-14T10:14:18.981Z,7.89
2019-01-14T10:16:49.271Z,7.88
2019-01-14T10:19:16.050Z,7.83
2019-01-14T10:21:43.085Z,7.85
2019-01-14T10:24:10.008Z,7.84
2019-01-14T10:26:36.664Z,7.85
2019-01-14T10:29:03.422Z,7.89
2019-01-14T10:31:30.563Z,7.89
2019-01-14T10:33:57.296Z,7.88
2019-01-14T10:36:24.138Z,7.90
2019-01-14T10:38:51.070Z,7.81
2019-01-14T10:41:17.916Z,7.86
2019-01-14T10:43:44.868Z,7.77
2019-01-14T10:46:11.776Z,7.77
2019-01-14T10:48:40.530Z,7.85
2019-01-14T10:51:07.446Z,7.83
2019-01-14T10:53:34.494Z,8.08
2019-01-14T10:56:01.434Z,8.08
2019-01-14T10:58:28.167Z,8.18
2019-01-14T11:00:55.072Z,8.26
2019-01-14T11:03:22.086Z,8.29
2019-01-14T11:05:48.811Z,8.26
2019-01-14T11:08:17.114Z,8.19
2019-01-14T11:10:43.957Z,8.19
2019-01-14T11:13:10.813Z,8.21
2019-01-14T11:15:37.800Z,8.21
2019-01-14T11:18:04.654Z,8.25
2019-01-14T11:20:32.177Z,8.25
2019-01-14T11:22:59.989Z,8.24
2019-01-14T11:25:26.934Z,8.23
2019-01-14T11:27:53.682Z,8.20
2019-01-14T11:30:23.213Z,8.19
2019-01-14T11:32:49.986Z,8.10
2019-01-14T11:35:17.146Z,8.11
2019-01-14T11:37:46.482Z,8.24
2019-01-14T11:40:18.804Z,8.26
2019-01-14T11:42:45.540Z,8.25
2019-01-14T11:45:12.363Z,8.19
2019-01-14T11:47:39.137Z,8.22
2019-01-14T11:50:07.781Z,8.18
2019-01-14T11:52:34.752Z,8.19
2019-01-14T11:55:02.384Z,8.17
2019-01-14T11:57:30.636Z,8.17
2019-01-14T11:59:57.535Z,8.06
2019-01-14T12:02:24.403Z,8.06
2019-01-14T12:04:51.175Z,8.19
2019-01-14T12:07:17.911Z,8.17
2019-01-14T12:09:44.665Z,8.04
2019-01-14T12:12:11.819Z,8.12
2019-01-14T12:14:38.980Z,6.82
2019-01-14T12:17:05.939Z,6.04
2019-01-14T12:19:34.222Z,5.64
2019-01-14T12:22:02.842Z,5.42
2019-01-14T12:24:29.652Z,5.42
2019-01-14T12:26:56.390Z,5.49
2019-01-14T12:29:23.296Z,5.76
2019-01-14T12:31:50.006Z,5.76
2019-01-14T12:34:17.207Z,5.78
2019-01-14T12:36:43.934Z,6.04
2019-01-14T12:39:19.292Z,6.04
2019-01-14T12:41:50.947Z,6.28
2019-01-14T12:44:12.428Z,6.13
2019-01-14T12:46:39.326Z,6.18
2019-01-14T12:49:06.342Z,6.18
2019-01-14T12:51:34.753Z,6.51
2019-01-14T12:54:01.780Z,6.51
2019-01-14T12:56:28.567Z,6.81
2019-01-14T12:58:55.307Z,6.81
2019-01-14T13:01:22.098Z,6.86
2019-01-14T13:03:48.901Z,6.81
2019-01-14T13:06:15.883Z,6.81
2019-01-14T13:08:42.837Z,6.83
2019-01-14T13:11:09.675Z,6.64
2019-01-14T13:13:36.453Z,6.69
2019-01-14T13:16:03.527Z,6.69
2019-01-14T13:18:30.478Z,6.96
2019-01-14T13:20:57.248Z,6.96
2019-01-14T13:23:24.035Z,7.03
2019-01-14T13:25:51.006Z,6.99
2019-01-14T13:28:17.723Z,6.84
2019-01-14T13:30:44.963Z,6.76
2019-01-14T13:33:11.753Z,6.76
2019-01-14T13:35:39.541Z,6.86
2019-01-14T13:38:06.295Z,6.76
2019-01-14T13:40:33.084Z,6.80
2019-01-14T13:42:59.782Z,7.03
2019-01-14T13:45:26.579Z,7.43
2019-01-14T13:47:53.356Z,7.66
2019-01-14T13:50:22.245Z,7.85
2019-01-14T13:52:49.080Z,8.02
2019-01-14T13:55:15.853Z,8.03
2019-01-14T13:57:43.082Z,7.83
2019-01-14T14:00:19.351Z,7.85
2019-01-14T14:02:46.377Z,7.69
2019-01-14T14:05:15.377Z,7.53
2019-01-14T14:07:42.216Z,7.38
2019-01-14T14:10:13.066Z,7.26
2019-01-14T14:12:40.085Z,7.29
2019-01-14T14:15:08.007Z,7.27
2019-01-14T14:17:37.424Z,7.25
2019-01-14T14:20:06.943Z,7.34
2019-01-14T14:22:33.814Z,7.17
2019-01-14T14:25:00.866Z,7.17
2019-01-14T14:27:27.797Z,7.17
2019-01-14T14:29:54.643Z,7.29
2019-01-14T14:32:21.494Z,7.12
2019-01-14T14:34:48.350Z,7.16
2019-01-14T14:37:15.195Z,7.16
2019-01-14T14:39:48.400Z,7.12
2019-01-14T14:42:10.913Z,7.04
2019-01-14T14:44:37.937Z,7.11
2019-01-14T14:47:04.779Z,6.76
2019-01-14T14:49:31.748Z,7.10
2019-01-14T14:51:58.791Z,7.10
2019-01-14T14:54:25.920Z,7.10
2019-01-14T14:56:52.776Z,7.10
2019-01-14T14:59:19.586Z,7.01
2019-01-14T15:01:47.281Z,6.82
2019-01-14T15:04:14.329Z,6.82
2019-01-14T15:06:41.215Z,6.93
2019-01-14T15:09:10.872Z,6.95
2019-01-14T15:11:37.680Z,6.95
2019-01-14T15:14:04.781Z,7.00
2019-01-14T15:16:31.549Z,7.04
2019-01-14T15:18:58.619Z,7.23
2019-01-14T15:21:25.425Z,7.31
2019-01-14T15:23:52.260Z,7.20
2019-01-14T15:26:19.059Z,6.96
2019-01-14T15:28:45.962Z,6.92
2019-01-14T15:31:14.381Z,6.92
2019-01-14T15:33:41.925Z,6.83
2019-01-14T15:36:08.695Z,6.88
2019-01-14T15:38:37.679Z,6.88
2019-01-14T15:41:04.793Z,6.88
2019-01-14T15:43:31.717Z,6.89
2019-01-14T15:45:58.446Z,6.85
2019-01-14T15:48:25.332Z,6.95
2019-01-14T15:50:52.120Z,7.16
2019-01-14T15:53:18.996Z,7.25
2019-01-14T15:55:45.941Z,7.38
2019-01-14T15:58:15.957Z,7.38
2019-01-14T16:00:42.698Z,7.31
2019-01-14T16:03:09.626Z,7.28
2019-01-14T16:05:36.354Z,7.28
2019-01-14T16:08:03.226Z,7.37
2019-01-14T16:10:30.470Z,7.41
2019-01-14T16:12:57.310Z,7.35
2019-01-14T16:15:24.486Z,7.22
2019-01-14T16:17:51.358Z,7.20
2019-01-14T16:20:22.072Z,7.22
2019-01-14T16:22:48.841Z,7.17
2019-01-14T16:25:15.728Z,7.00
2019-01-14T16:27:42.495Z,7.14
2019-01-14T16:30:16.008Z,7.14
2019-01-14T16:32:43.203Z,7.11
2019-01-14T16:35:10.873Z,7.29
2019-01-14T16:37:37.698Z,7.37
2019-01-14T16:40:07.778Z,7.37
2019-01-14T16:42:34.540Z,7.40
2019-01-14T16:45:01.432Z,7.17
2019-01-14T16:47:28.282Z,7.16
2019-01-14T16:49:55.930Z,7.16
2019-01-14T16:52:22.705Z,6.96
2019-01-14T16:54:49.480Z,6.89
2019-01-14T16:57:16.359Z,6.86
2019-01-14T16:59:43.335Z,6.86
2019-01-14T17:02:12.647Z,6.75
2019-01-14T17:04:39.515Z,6.69
2019-01-14T17:07:06.272Z,6.69
2019-01-14T17:09:33.073Z,6.83
2019-01-14T17:12:00.383Z,6.83
2019-01-14T17:14:27.452Z,6.88
2019-01-14T17:16:54.196Z,6.93
2019-01-14T17:19:22.040Z,6.91
2019-01-14T17:21:48.773Z,6.83
2019-01-14T17:24:15.586Z,6.87
2019-01-14T17:26:42.442Z,6.87
2019-01-14T17:29:09.763Z,6.92
2019-01-14T17:31:39.532Z,6.60
2019-01-14T17:34:06.625Z,6.63
2019-01-14T17:36:33.570Z,6.61
2019-01-14T17:39:00.329Z,6.72
2019-01-14T17:41:28.179Z,6.72
2019-01-14T17:43:55.050Z,6.62
2019-01-14T17:46:22.237Z,6.63
2019-01-14T17:48:49.196Z,6.60
2019-01-14T17:51:16.760Z,6.67
2019-01-14T17:53:43.540Z,6.67
2019-01-14T17:56:10.312Z,6.75
2019-01-14T17:58:37.619Z,6.87
2019-01-14T18:01:04.444Z,6.87
2019-01-14T18:03:31.253Z,7.00
2019-01-14T18:05:58.334Z,7.15
2019-01-14T18:08:27.100Z,7.09
2019-01-14T18:10:53.841Z,7.09
2019-01-14T18:13:20.672Z,7.06
2019-01-14T18:15:47.403Z,7.07
2019-01-14T18:18:14.884Z,7.02
2019-01-14T18:20:41.745Z,7.06
2019-01-14T18:23:12.396Z,7.05
2019-01-14T18:25:39.319Z,7.11
2019-01-14T18:28:06.446Z,7.11
2019-01-14T18:30:33.283Z,7.09
2019-01-14T18:33:00.146Z,7.00
2019-01-14T18:35:26.911Z,7.00
2019-01-14T18:37:54.019Z,6.96
2019-01-14T18:40:20.873Z,6.85
2019-01-14T18:42:47.603Z,6.85
2019-01-14T18:45:16.080Z,6.87
2019-01-14T18:47:43.308Z,6.95
2019-01-14T18:50:12.846Z,7.01
2019-01-14T18:52:39.638Z,7.01
2019-01-14T18:55:06.483Z,7.01
2019-01-14T18:57:33.264Z,7.01
2019-01-14T19:00:00.403Z,6.76
2019-01-14T19:02:27.292Z,6.42
2019-01-14T19:04:54.161Z,6.42
2019-01-14T19:07:21.302Z,6.36
2019-01-14T19:09:50.534Z,6.36
2019-01-14T19:12:17.298Z,6.34
2019-01-14T19:14:44.066Z,6.45
2019-01-14T19:17:10.909Z,6.64
2019-01-14T19:19:37.848Z,6.65
2019-01-14T19:22:04.595Z,6.67
2019-01-14T19:24:31.402Z,6.67
2019-01-14T19:26:58.135Z,6.67
2019-01-14T19:29:24.922Z,6.74
2019-01-14T19:31:51.765Z,6.63
2019-01-14T19:34:18.642Z,6.63
2019-01-14T19:36:45.681Z,6.34
2019-01-14T19:39:12.437Z,6.57
2019-01-14T19:41:39.700Z,6.44
2019-01-14T19:44:06.828Z,6.44
2019-01-14T19:46:33.685Z,6.48
2019-01-14T19:49:00.624Z,6.26
2019-01-14T19:51:27.680Z,6.26
2019-01-14T19:53:54.536Z,6.19
2019-01-14T19:56:21.403Z,6.19
2019-01-14T19:58:50.197Z,5.99
2019-01-14T20:01:16.988Z,5.95
2019-01-14T20:03:43.710Z,5.52
2019-01-14T20:06:10.993Z,5.52
2019-01-14T20:08:37.989Z,5.46
2019-01-14T20:11:09.176Z,5.43
2019-01-14T20:13:33.781Z,5.43
2019-01-14T20:16:00.642Z,5.47
2019-01-14T20:18:27.582Z,5.53
2019-01-14T20:20:54.352Z,5.69
2019-01-14T20:23:21.083Z,5.77
2019-01-14T20:25:47.879Z,5.77
2019-01-14T20:28:14.861Z,5.90
2019-01-14T20:30:42.478Z,5.99
2019-01-14T20:33:09.395Z,6.06
2019-01-14T20:35:36.243Z,6.17
2019-01-14T20:38:03.118Z,6.17
2019-01-14T20:40:29.889Z,6.14
2019-01-14T20:42:57.108Z,6.15
2019-01-14T20:45:23.945Z,6.11
2019-01-14T20:47:50.708Z,6.01
2019-01-14T20:50:18.793Z,6.03
2019-01-14T20:52:45.669Z,6.03
2019-01-14T20:55:12.747Z,6.03
2019-01-14T20:57:39.486Z,5.91
2019-01-14T21:00:16.963Z,5.60
2019-01-14T21:02:45.273Z,5.60
2019-01-14T21:05:12.441Z,5.44
2019-01-14T21:07:39.356Z,5.44
2019-01-14T21:10:08.985Z,5.26
2019-01-14T21:12:36.275Z,5.35
2019-01-14T21:15:03.602Z,5.35
2019-01-14T21:17:30.412Z,5.51
2019-01-14T21:19:57.418Z,5.55
2019-01-14T21:22:24.496Z,5.55
2019-01-14T21:24:51.307Z,5.55
2019-01-14T21:27:18.081Z,5.62
2019-01-14T21:29:50.261Z,5.64
2019-01-14T21:32:17.022Z,5.76
2019-01-14T21:34:43.872Z,5.76
2019-01-14T21:37:10.653Z,5.85
2019-01-14T21:39:37.408Z,5.85
2019-01-14T21:42:04.597Z,5.85
2019-01-14T21:44:31.425Z,5.74
2019-01-14T21:46:58.567Z,5.74
2019-01-14T21:49:25.448Z,5.64
2019-01-14T21:51:52.344Z,5.60
2019-01-14T21:54:19.161Z,5.67
2019-01-14T21:56:46.072Z,5.76
2019-01-14T21:59:13.182Z,5.82
2019-01-14T22:01:40.043Z,5.82
2019-01-14T22:04:07.194Z,5.85
2019-01-14T22:06:34.013Z,5.88
2019-01-14T22:09:00.796Z,5.99
2019-01-14T22:11:27.537Z,5.98
2019-01-14T22:13:54.502Z,5.91
2019-01-14T22:16:21.475Z,5.88
2019-01-14T22:18:49.521Z,5.72
2019-01-14T22:21:16.362Z,5.72
2019-01-14T22:23:43.243Z,5.74
2019-01-14T22:26:09.984Z,5.73
2019-01-14T22:28:37.233Z,5.73
2019-01-14T22:31:04.006Z,5.74
2019-01-14T22:33:30.923Z,5.90
2019-01-14T22:35:57.857Z,5.88
2019-01-14T22:38:25.033Z,5.77
2019-01-14T22:40:51.923Z,5.77
2019-01-14T22:43:18.719Z,5.67
2019-01-14T22:45:45.763Z,5.65
2019-01-14T22:48:12.497Z,5.59
2019-01-14T22:50:39.350Z,5.68
2019-01-14T22:53:06.386Z,5.62
2019-01-14T22:55:33.102Z,5.45
2019-01-14T22:57:59.910Z,5.45
2019-01-14T23:01:09.722Z,5.50
2019-01-14T23:03:36.928Z,5.67
2019-01-14T23:06:04.373Z,5.65
2019-01-14T23:08:31.170Z,5.65
2019-01-14T23:10:58.004Z,5.49
2019-01-14T23:13:24.754Z,5.39
2019-01-14T23:15:51.705Z,5.57
2019-01-14T23:18:18.496Z,5.57
2019-01-14T23:20:45.221Z,5.69
2019-01-14T23:23:12.014Z,5.75
2019-01-14T23:25:39.178Z,5.77
2019-01-14T23:28:06.014Z,5.70
2019-01-14T23:30:32.739Z,5.70
2019-01-14T23:32:59.605Z,5.70
2019-01-14T23:35:26.334Z,5.73
2019-01-14T23:37:53.501Z,5.73
2019-01-14T23:40:21.361Z,5.66
2019-01-14T23:42:48.631Z,5.68
2019-01-14T23:45:15.512Z,5.67
2019-01-14T23:47:42.381Z,5.68
2019-01-14T23:50:13.445Z,5.59
2019-01-14T23:52:40.310Z,5.59
2019-01-14T23:55:07.141Z,5.55
2019-01-14T23:57:33.864Z,5.48
